Time;durP1;ratioP1;P1;durP2;ratioP2;P2;SDS_P1;SDS_P2;PMS_P1;PMS_P2;Temp;Humidity;BMP_temperature;BMP_pressure;BME280_temperature;BME280_humidity;BME280_pressure;Samples;Min_cycle;Max_cycle;Signal;HPM_P1;HPM_P2
2024/04/13 00:00:53;;;;;;;9.03;5.37;;;;;;;;;;1914525;75;21471;-50
2024/04/13 00:03:23;;;;;;;9.33;5.92;;;;;;;;;;1914921;74;21010;-48
2024/04/13 00:05:51;;;;;;;10.03;6.95;;;;;;;;;;1914852;75;21128;-48
2024/04/13 00:08:20;;;;;;;7.03;5.00;;;;;;;;;;1914807;75;21026;-48
2024/04/13 00:10:49;;;;;;;9.05;5.05;;;;;;;;;;1914832;75;21080;-47
2024/04/13 00:13:17;;;;;;;9.50;5.70;;;;;;;;;;1914788;75;21088;-48
2024/04/13 00:15:58;;;;;;;9.85;5.55;;;;;;;;;;1914795;75;21099;-47
2024/04/13 00:18:27;;;;;;;7.60;4.55;;;;;;;;;;1914786;75;21089;-48
2024/04/13 00:20:56;;;;;;;8.75;5.20;;;;;;;;;;1914900;75;21088;-47
2024/04/13 00:23:24;;;;;;;7.55;5.33;;;;;;;;;;1914758;74;21022;-47
2024/04/13 00:25:54;;;;;;;7.97;5.85;;;;;;;;;;1914819;75;21025;-47
2024/04/13 00:28:22;;;;;;;8.50;4.85;;;;;;;;;;1914901;75;20974;-48
2024/04/13 00:30:51;;;;;;;8.88;4.95;;;;;;;;;;1914780;75;21103;-48
2024/04/13 00:33:19;;;;;;;6.67;4.75;;;;;;;;;;1914933;74;21069;-47
2024/04/13 00:35:50;;;;;;;10.45;4.67;;;;;;;;;;1914946;74;21010;-50
2024/04/13 00:38:19;;;;;;;6.28;4.45;;;;;;;;;;1914919;74;21084;-47
2024/04/13 00:40:47;;;;;;;7.35;4.12;;;;;;;;;;1915023;75;21080;-47
2024/04/13 00:43:16;;;;;;;7.22;3.75;;;;;;;;;;1914854;75;21076;-47
2024/04/13 00:45:45;;;;;;;8.10;4.55;;;;;;;;;;1914881;74;21018;-47
2024/04/13 00:48:15;;;;;;;6.05;4.33;;;;;;;;;;1914995;75;21064;-47
2024/04/13 00:50:45;;;;;;;5.95;3.90;;;;;;;;;;1914891;75;21084;-47
2024/04/13 00:53:14;;;;;;;6.12;4.10;;;;;;;;;;1914978;75;21069;-47
2024/04/13 00:55:44;;;;;;;7.33;4.75;;;;;;;;;;1914943;74;21053;-47
2024/04/13 00:58:12;;;;;;;5.33;3.50;;;;;;;;;;1914865;74;21088;-47
2024/04/13 01:00:42;;;;;;;5.92;4.00;;;;;;;;;;1914770;75;21123;-47
2024/04/13 01:03:10;;;;;;;4.08;3.27;;;;;;;;;;1914848;75;21313;-47
2024/04/13 01:05:39;;;;;;;6.53;3.58;;;;;;;;;;1914824;75;21017;-47
2024/04/13 01:08:09;;;;;;;5.92;3.22;;;;;;;;;;1914906;74;21063;-48
2024/04/13 01:10:40;;;;;;;4.80;3.50;;;;;;;;;;1914729;75;21530;-47
2024/04/13 01:13:09;;;;;;;4.92;3.30;;;;;;;;;;1914683;74;21469;-48
2024/04/13 01:15:38;;;;;;;2.95;2.50;;;;;;;;;;1914761;75;21416;-48
2024/04/13 01:18:14;;;;;;;5.25;3.50;;;;;;;;;;1914794;74;21019;-47
2024/04/13 01:20:43;;;;;;;4.35;3.37;;;;;;;;;;1913900;75;21566;-49
2024/04/13 01:23:11;;;;;;;4.42;3.25;;;;;;;;;;1914390;75;21097;-50
2024/04/13 01:25:43;;;;;;;5.20;3.50;;;;;;;;;;1914781;75;21006;-49
2024/04/13 01:28:12;;;;;;;8.65;4.00;;;;;;;;;;1914774;75;21054;-51
2024/04/13 01:30:41;;;;;;;4.65;3.60;;;;;;;;;;1914813;74;21061;-50
2024/04/13 01:33:10;;;;;;;5.72;3.87;;;;;;;;;;1914794;75;21006;-49
2024/04/13 01:35:38;;;;;;;6.78;4.45;;;;;;;;;;1920851;74;21045;-48
2024/04/13 01:38:09;;;;;;;5.87;4.30;;;;;;;;;;1924633;74;21084;-48
2024/04/13 01:40:37;;;;;;;6.47;4.78;;;;;;;;;;1924655;74;21006;-48
2024/04/13 01:43:06;;;;;;;7.25;4.35;;;;;;;;;;1924532;74;21033;-48
2024/04/13 01:45:35;;;;;;;7.30;4.92;;;;;;;;;;1924697;74;20974;-48
2024/04/13 01:48:03;;;;;;;6.05;4.42;;;;;;;;;;1924535;74;21052;-49
2024/04/13 01:50:32;;;;;;;7.17;4.70;;;;;;;;;;1924691;74;20998;-48
2024/04/13 01:53:00;;;;;;;6.67;4.28;;;;;;;;;;1924703;74;21073;-48
2024/04/13 01:55:29;;;;;;;6.22;4.75;;;;;;;;;;1924552;74;21002;-48
2024/04/13 01:57:57;;;;;;;7.55;4.62;;;;;;;;;;1924630;74;21025;-48
2024/04/13 02:00:27;;;;;;;8.15;4.67;;;;;;;;;;1924627;74;21092;-48
2024/04/13 02:02:55;;;;;;;7.00;4.40;;;;;;;;;;1924553;74;21073;-48
2024/04/13 02:05:24;;;;;;;7.00;5.17;;;;;;;;;;1924678;74;21021;-49
2024/04/13 02:07:52;;;;;;;5.83;4.00;;;;;;;;;;1924648;74;21030;-48
2024/04/13 02:10:21;;;;;;;6.00;3.90;;;;;;;;;;1924657;74;21069;-48
2024/04/13 02:12:50;;;;;;;3.80;3.40;;;;;;;;;;1924670;74;21021;-48
2024/04/13 02:15:19;;;;;;;5.33;4.05;;;;;;;;;;1924552;74;21541;-48
2024/04/13 02:17:48;;;;;;;6.20;3.65;;;;;;;;;;1924714;74;21017;-48
2024/04/13 02:20:16;;;;;;;4.10;3.35;;;;;;;;;;1924762;74;21010;-48
2024/04/13 02:22:45;;;;;;;4.50;3.17;;;;;;;;;;1924778;74;21009;-48
2024/04/13 02:25:14;;;;;;;3.37;2.98;;;;;;;;;;1924716;74;21084;-48
2024/04/13 02:27:42;;;;;;;5.83;3.33;;;;;;;;;;1924818;74;20998;-48
2024/04/13 02:30:11;;;;;;;4.45;2.42;;;;;;;;;;1924758;74;21006;-49
2024/04/13 02:32:40;;;;;;;6.10;2.77;;;;;;;;;;1924856;74;21091;-48
2024/04/13 02:35:08;;;;;;;6.72;2.50;;;;;;;;;;1922633;74;21103;-48
2024/04/13 02:37:38;;;;;;;2.80;2.50;;;;;;;;;;1914735;75;21022;-48
2024/04/13 02:40:08;;;;;;;4.40;2.83;;;;;;;;;;1914762;75;21052;-48
2024/04/13 02:42:40;;;;;;;2.95;2.27;;;;;;;;;;1914750;75;21022;-48
2024/04/13 02:45:10;;;;;;;4.08;1.90;;;;;;;;;;1914758;74;21022;-48
2024/04/13 02:47:38;;;;;;;2.45;2.02;;;;;;;;;;1914709;75;21034;-47
2024/04/13 02:50:07;;;;;;;2.30;1.98;;;;;;;;;;1914860;74;21026;-48
2024/04/13 02:52:36;;;;;;;2.42;1.92;;;;;;;;;;1914700;75;21030;-48
2024/04/13 02:55:05;;;;;;;3.52;2.25;;;;;;;;;;1914785;74;21132;-48
2024/04/13 02:57:33;;;;;;;4.03;2.27;;;;;;;;;;1914800;74;21127;-48
2024/04/13 03:00:03;;;;;;;2.08;1.80;;;;;;;;;;1914753;75;21030;-48
2024/04/13 03:02:31;;;;;;;4.10;2.27;;;;;;;;;;1914692;75;21103;-48
2024/04/13 03:05:03;;;;;;;2.47;2.02;;;;;;;;;;1914779;75;21022;-48
2024/04/13 03:07:32;;;;;;;3.92;2.20;;;;;;;;;;1914673;75;21030;-48
2024/04/13 03:10:00;;;;;;;3.05;2.05;;;;;;;;;;1914714;75;21002;-48
2024/04/13 03:12:29;;;;;;;3.85;1.98;;;;;;;;;;1914813;75;21014;-48
2024/04/13 03:15:02;;;;;;;6.35;2.17;;;;;;;;;;1914684;75;21061;-48
2024/04/13 03:17:29;;;;;;;6.35;2.98;;;;;;;;;;1914069;75;21491;-48
2024/04/13 03:19:58;;;;;;;6.95;2.72;;;;;;;;;;1914681;75;21026;-48
2024/04/13 03:22:27;;;;;;;3.95;2.47;;;;;;;;;;1914802;74;21096;-48
2024/04/13 03:24:56;;;;;;;4.53;2.60;;;;;;;;;;1914843;75;21006;-47
2024/04/13 03:27:25;;;;;;;3.17;2.47;;;;;;;;;;1914855;74;21006;-48
2024/04/13 03:29:53;;;;;;;6.45;2.90;;;;;;;;;;1914730;74;21022;-48
2024/04/13 03:32:22;;;;;;;5.65;2.80;;;;;;;;;;1914803;74;21030;-48
2024/04/13 03:34:50;;;;;;;3.37;2.50;;;;;;;;;;1914809;75;21010;-48
2024/04/13 03:37:19;;;;;;;3.37;1.92;;;;;;;;;;1923826;74;21033;-48
2024/04/13 03:39:48;;;;;;;9.58;3.27;;;;;;;;;;1924666;74;21084;-48
2024/04/13 03:42:16;;;;;;;6.00;2.90;;;;;;;;;;1924551;74;21091;-47
2024/04/13 03:44:45;;;;;;;4.42;2.83;;;;;;;;;;1924586;74;21009;-48
2024/04/13 03:47:14;;;;;;;7.37;2.65;;;;;;;;;;1924591;74;21029;-47
2024/04/13 03:49:42;;;;;;;6.05;3.30;;;;;;;;;;1924640;74;21077;-48
2024/04/13 03:52:11;;;;;;;5.72;2.98;;;;;;;;;;1924687;74;21013;-48
2024/04/13 03:54:41;;;;;;;5.92;3.08;;;;;;;;;;1924570;74;21095;-48
2024/04/13 03:57:11;;;;;;;4.37;3.27;;;;;;;;;;1924655;74;20986;-48
2024/04/13 03:59:40;;;;;;;7.90;4.05;;;;;;;;;;1924541;74;21047;-48
2024/04/13 04:02:08;;;;;;;8.70;2.90;;;;;;;;;;1924675;74;20970;-48
2024/04/13 04:04:37;;;;;;;3.80;2.92;;;;;;;;;;1924655;74;21025;-48
2024/04/13 04:07:06;;;;;;;17.67;4.05;;;;;;;;;;1924608;74;21014;-48
2024/04/13 04:09:34;;;;;;;8.95;4.17;;;;;;;;;;1924612;74;21021;-48
2024/04/13 04:12:04;;;;;;;17.87;3.22;;;;;;;;;;1924505;74;21014;-48
2024/04/13 04:14:32;;;;;;;10.28;2.95;;;;;;;;;;1924593;74;21056;-49
2024/04/13 04:17:01;;;;;;;6.87;3.70;;;;;;;;;;1924454;74;21025;-48
2024/04/13 04:19:29;;;;;;;14.63;3.65;;;;;;;;;;1924485;74;21021;-48
2024/04/13 04:21:58;;;;;;;5.78;2.83;;;;;;;;;;1924580;74;21088;-48
2024/04/13 04:24:27;;;;;;;20.25;4.25;;;;;;;;;;1924436;74;21097;-48
2024/04/13 04:26:55;;;;;;;3.30;3.00;;;;;;;;;;1924534;74;21107;-50
2024/04/13 04:29:24;;;;;;;6.28;2.70;;;;;;;;;;1924497;74;21095;-48
2024/04/13 04:31:53;;;;;;;10.15;4.25;;;;;;;;;;1924624;74;21080;-46
2024/04/13 04:34:22;;;;;;;14.83;3.65;;;;;;;;;;1924572;74;21033;-47
2024/04/13 04:36:55;;;;;;;9.80;3.37;;;;;;;;;;1919582;74;21111;-47
2024/04/13 04:39:21;;;;;;;6.87;3.35;;;;;;;;;;1914093;75;20994;-48
2024/04/13 04:41:51;;;;;;;9.53;2.92;;;;;;;;;;1914782;75;20998;-47
2024/04/13 04:44:19;;;;;;;6.10;2.60;;;;;;;;;;1914836;75;21060;-47
2024/04/13 04:46:48;;;;;;;6.58;2.75;;;;;;;;;;1914895;75;21026;-47
2024/04/13 04:49:16;;;;;;;8.95;2.42;;;;;;;;;;1914882;75;21002;-47
2024/04/13 04:51:45;;;;;;;4.97;2.85;;;;;;;;;;1914731;75;21135;-47
2024/04/13 04:54:13;;;;;;;11.28;3.25;;;;;;;;;;1914781;74;21014;-47
2024/04/13 04:56:42;;;;;;;6.78;2.72;;;;;;;;;;1914806;75;21077;-47
2024/04/13 04:59:11;;;;;;;8.33;2.77;;;;;;;;;;1914794;74;21018;-47
2024/04/13 05:01:40;;;;;;;11.08;3.10;;;;;;;;;;1914783;75;21084;-47
2024/04/13 05:04:08;;;;;;;3.33;2.27;;;;;;;;;;1914726;75;21025;-48
2024/04/13 05:06:37;;;;;;;11.18;3.17;;;;;;;;;;1914727;75;21151;-47
2024/04/13 05:09:07;;;;;;;18.07;3.17;;;;;;;;;;1914859;75;21022;-47
2024/04/13 05:11:35;;;;;;;13.60;2.85;;;;;;;;;;1914699;75;21067;-47
2024/04/13 05:14:04;;;;;;;10.08;2.98;;;;;;;;;;1914640;75;21018;-48
2024/04/13 05:16:33;;;;;;;10.45;2.67;;;;;;;;;;1914503;74;21073;-48
2024/04/13 05:19:03;;;;;;;3.90;2.58;;;;;;;;;;1914836;75;20986;-50
2024/04/13 05:21:31;;;;;;;7.50;2.22;;;;;;;;;;1914882;75;21530;-50
2024/04/13 05:24:00;;;;;;;9.90;2.30;;;;;;;;;;1914756;75;21014;-50
2024/04/13 05:26:29;;;;;;;6.25;2.58;;;;;;;;;;1914930;75;21084;-50
2024/04/13 05:28:57;;;;;;;10.60;2.52;;;;;;;;;;1914783;75;21066;-50
2024/04/13 05:31:26;;;;;;;6.15;2.35;;;;;;;;;;1914686;75;21370;-49
2024/04/13 05:33:55;;;;;;;17.35;14.28;;;;;;;;;;1914834;75;21061;-47
2024/04/13 05:36:23;;;;;;;6.35;4.00;;;;;;;;;;1914642;74;21203;-50
2024/04/13 05:38:52;;;;;;;6.33;2.45;;;;;;;;;;1914664;74;21057;-48
2024/04/13 05:41:21;;;;;;;7.10;2.77;;;;;;;;;;1914552;75;21002;-48
2024/04/13 05:43:50;;;;;;;6.00;2.75;;;;;;;;;;1914700;75;21067;-50
2024/04/13 05:46:18;;;;;;;3.45;2.20;;;;;;;;;;1914702;75;21018;-48
2024/04/13 05:48:47;;;;;;;3.05;2.55;;;;;;;;;;1914713;74;20998;-47
2024/04/13 05:51:15;;;;;;;4.00;2.55;;;;;;;;;;1914676;74;21026;-47
2024/04/13 05:53:44;;;;;;;9.90;3.62;;;;;;;;;;1914662;75;21018;-47
2024/04/13 05:56:13;;;;;;;4.42;2.37;;;;;;;;;;1914615;75;21050;-48
2024/04/13 05:58:41;;;;;;;5.33;2.62;;;;;;;;;;1914706;75;21022;-48
2024/04/13 06:01:10;;;;;;;2.72;2.37;;;;;;;;;;1914819;75;21038;-47
2024/04/13 06:03:39;;;;;;;3.42;2.70;;;;;;;;;;1914717;74;21022;-47
2024/04/13 06:06:07;;;;;;;3.87;2.85;;;;;;;;;;1914769;75;21026;-48
2024/04/13 06:08:36;;;;;;;5.37;2.95;;;;;;;;;;1914832;75;21002;-50
2024/04/13 06:11:05;;;;;;;7.37;3.45;;;;;;;;;;1914809;75;21096;-47
2024/04/13 06:13:33;;;;;;;2.98;2.22;;;;;;;;;;1914826;75;21026;-48
2024/04/13 06:16:05;;;;;;;9.00;4.17;;;;;;;;;;1914824;74;21310;-48
2024/04/13 06:18:33;;;;;;;8.60;3.30;;;;;;;;;;1914722;75;21010;-47
2024/04/13 06:21:02;;;;;;;7.67;2.98;;;;;;;;;;1914708;74;21026;-47
2024/04/13 06:23:30;;;;;;;4.72;2.83;;;;;;;;;;1914672;75;21091;-47
2024/04/13 06:25:59;;;;;;;4.78;3.33;;;;;;;;;;1914662;75;21088;-47
2024/04/13 06:28:27;;;;;;;8.80;3.35;;;;;;;;;;1914685;75;20974;-47
2024/04/13 06:30:56;;;;;;;9.03;3.47;;;;;;;;;;1914683;75;21010;-47
2024/04/13 06:33:25;;;;;;;4.62;3.35;;;;;;;;;;1914710;75;21042;-47
2024/04/13 06:35:54;;;;;;;14.03;5.28;;;;;;;;;;1914625;75;21018;-48
2024/04/13 06:38:26;;;;;;;4.20;3.35;;;;;;;;;;1914644;74;21155;-48
2024/04/13 06:40:55;;;;;;;6.37;3.30;;;;;;;;;;1914666;74;20966;-47
2024/04/13 06:43:24;;;;;;;3.77;2.80;;;;;;;;;;1914642;75;21030;-47
2024/04/13 06:45:52;;;;;;;10.45;3.25;;;;;;;;;;1914564;75;21225;-47
2024/04/13 06:48:21;;;;;;;5.37;3.25;;;;;;;;;;1914650;74;21092;-47
2024/04/13 06:50:49;;;;;;;6.33;2.92;;;;;;;;;;1914647;75;21024;-50
2024/04/13 06:53:18;;;;;;;11.93;2.87;;;;;;;;;;1914810;75;21018;-47
2024/04/13 06:55:47;;;;;;;7.92;4.05;;;;;;;;;;1914643;74;21080;-48
2024/04/13 06:58:15;;;;;;;5.85;3.80;;;;;;;;;;1914647;75;21022;-47
2024/04/13 07:00:44;;;;;;;7.58;3.52;;;;;;;;;;1914587;75;21045;-47
2024/04/13 07:03:12;;;;;;;6.30;3.50;;;;;;;;;;1914636;75;21100;-47
2024/04/13 07:05:41;;;;;;;4.50;2.83;;;;;;;;;;1914707;75;21092;-47
2024/04/13 07:08:10;;;;;;;3.72;3.10;;;;;;;;;;1914719;74;21019;-47
2024/04/13 07:10:38;;;;;;;3.90;2.70;;;;;;;;;;1914707;75;21002;-47
2024/04/13 07:13:08;;;;;;;5.40;3.50;;;;;;;;;;1914667;75;21002;-47
2024/04/13 07:15:37;;;;;;;5.87;3.72;;;;;;;;;;1914635;75;21014;-47
2024/04/13 07:18:08;;;;;;;5.08;3.47;;;;;;;;;;1914759;75;21006;-47
2024/04/13 07:20:36;;;;;;;4.17;2.80;;;;;;;;;;1914651;75;21529;-47
2024/04/13 07:23:04;;;;;;;3.83;2.95;;;;;;;;;;1914758;75;21022;-48
2024/04/13 07:25:33;;;;;;;5.42;3.67;;;;;;;;;;1914597;74;21041;-47
2024/04/13 07:28:02;;;;;;;4.80;2.67;;;;;;;;;;1914576;75;21092;-47
2024/04/13 07:30:31;;;;;;;6.70;2.80;;;;;;;;;;1914617;75;21099;-48
2024/04/13 07:32:59;;;;;;;6.58;3.60;;;;;;;;;;1914591;74;21026;-47
2024/04/13 07:35:28;;;;;;;4.45;3.00;;;;;;;;;;1914560;75;21061;-47
2024/04/13 07:37:57;;;;;;;7.20;3.12;;;;;;;;;;1918288;74;21045;-47
2024/04/13 07:40:26;;;;;;;7.75;3.40;;;;;;;;;;1924474;74;21010;-48
2024/04/13 07:42:55;;;;;;;6.47;3.02;;;;;;;;;;1924634;74;21006;-47
2024/04/13 07:45:23;;;;;;;4.15;2.92;;;;;;;;;;1924702;74;21053;-47
2024/04/13 07:47:52;;;;;;;4.83;3.00;;;;;;;;;;1924600;74;21091;-47
2024/04/13 07:50:21;;;;;;;5.05;3.08;;;;;;;;;;1924504;74;21080;-47
2024/04/13 07:52:50;;;;;;;9.10;3.52;;;;;;;;;;1924597;74;21084;-47
2024/04/13 07:55:18;;;;;;;4.40;3.27;;;;;;;;;;1924669;74;21166;-47
2024/04/13 07:57:47;;;;;;;3.55;2.90;;;;;;;;;;1924552;74;21160;-47
2024/04/13 08:00:16;;;;;;;5.03;2.95;;;;;;;;;;1924649;74;21025;-47
2024/04/13 08:02:44;;;;;;;4.70;2.80;;;;;;;;;;1924592;74;21084;-47
2024/04/13 08:05:13;;;;;;;4.67;2.98;;;;;;;;;;1924628;74;21434;-47
2024/04/13 08:07:41;;;;;;;5.62;3.22;;;;;;;;;;1924597;74;20986;-47
2024/04/13 08:10:10;;;;;;;4.47;3.05;;;;;;;;;;1924643;74;21464;-47
2024/04/13 08:12:39;;;;;;;8.20;3.52;;;;;;;;;;1924557;74;21014;-47
2024/04/13 08:15:08;;;;;;;10.18;7.97;;;;;;;;;;1924592;74;21146;-48
2024/04/13 08:17:38;;;;;;;6.83;3.35;;;;;;;;;;1924650;74;20986;-47
2024/04/13 08:20:09;;;;;;;8.00;2.92;;;;;;;;;;1924595;74;21143;-47
2024/04/13 08:22:37;;;;;;;7.72;3.37;;;;;;;;;;1924640;74;21432;-47
2024/04/13 08:25:06;;;;;;;3.70;3.30;;;;;;;;;;1924517;74;21092;-47
2024/04/13 08:27:35;;;;;;;7.75;3.47;;;;;;;;;;1924825;74;21038;-47
2024/04/13 08:30:03;;;;;;;7.22;3.83;;;;;;;;;;1924600;74;21056;-48
2024/04/13 08:32:32;;;;;;;3.80;3.12;;;;;;;;;;1924704;74;21009;-48
2024/04/13 08:35:01;;;;;;;6.35;3.00;;;;;;;;;;1924586;74;21029;-48
2024/04/13 08:37:29;;;;;;;7.10;3.55;;;;;;;;;;1924646;73;21018;-48
2024/04/13 08:39:58;;;;;;;5.05;3.40;;;;;;;;;;1924616;74;21029;-48
2024/04/13 08:42:28;;;;;;;4.42;3.10;;;;;;;;;;1924628;74;21010;-47
2024/04/13 08:44:57;;;;;;;7.10;3.50;;;;;;;;;;1924345;74;21009;-48
2024/04/13 08:47:27;;;;;;;7.10;3.85;;;;;;;;;;1924534;74;22214;-48
2024/04/13 08:49:59;;;;;;;4.70;3.80;;;;;;;;;;1924642;74;20997;-48
2024/04/13 08:52:28;;;;;;;5.95;4.10;;;;;;;;;;1924560;74;21412;-48
2024/04/13 08:54:57;;;;;;;6.53;4.30;;;;;;;;;;1924535;74;21013;-47
2024/04/13 08:57:26;;;;;;;9.63;4.00;;;;;;;;;;1924610;74;21025;-48
2024/04/13 08:59:55;;;;;;;5.47;3.65;;;;;;;;;;1924558;74;20994;-48
2024/04/13 09:02:25;;;;;;;9.55;3.70;;;;;;;;;;1924762;74;21049;-49
2024/04/13 09:04:54;;;;;;;5.37;3.55;;;;;;;;;;1924867;74;21479;-47
2024/04/13 09:07:22;;;;;;;9.58;3.45;;;;;;;;;;1924604;74;21069;-47
2024/04/13 09:09:53;;;;;;;9.08;3.95;;;;;;;;;;1924585;74;21088;-48
2024/04/13 09:12:21;;;;;;;6.78;4.67;;;;;;;;;;1924646;74;21006;-50
2024/04/13 09:14:50;;;;;;;10.65;3.80;;;;;;;;;;1924610;74;21026;-53
2024/04/13 09:17:19;;;;;;;7.65;3.40;;;;;;;;;;1924680;74;21105;-50
2024/04/13 09:19:48;;;;;;;7.03;3.75;;;;;;;;;;1924975;74;21087;-50
2024/04/13 09:22:17;;;;;;;4.97;3.37;;;;;;;;;;1924790;74;21092;-50
2024/04/13 09:24:46;;;;;;;8.55;4.67;;;;;;;;;;1924849;74;20993;-50
2024/04/13 09:27:16;;;;;;;5.78;3.50;;;;;;;;;;1924764;74;21085;-50
2024/04/13 09:29:45;;;;;;;6.67;3.62;;;;;;;;;;1924778;74;21091;-49
2024/04/13 09:32:26;;;;;;;4.58;3.72;;;;;;;;;;1924795;74;21126;-48
2024/04/13 09:34:55;;;;;;;8.10;3.47;;;;;;;;;;1924676;74;21084;-49
2024/04/13 09:37:24;;;;;;;4.70;3.27;;;;;;;;;;1924631;73;21045;-50
2024/04/13 09:40:06;;;;;;;10.85;3.75;;;;;;;;;;1916847;74;21159;-51
2024/04/13 09:42:35;;;;;;;10.08;4.50;;;;;;;;;;1914828;75;21127;-49
2024/04/13 09:45:05;;;;;;;6.83;3.90;;;;;;;;;;1914705;75;21120;-49
2024/04/13 09:47:33;;;;;;;6.40;3.87;;;;;;;;;;1914694;75;21147;-49
2024/04/13 09:50:02;;;;;;;4.53;3.62;;;;;;;;;;1914881;75;21084;-49
2024/04/13 09:52:32;;;;;;;6.30;3.27;;;;;;;;;;1914999;75;21076;-48
2024/04/13 09:55:02;;;;;;;9.68;3.60;;;;;;;;;;1914866;75;21527;-49
2024/04/13 09:57:31;;;;;;;5.15;3.15;;;;;;;;;;1914846;75;21026;-48
2024/04/13 10:00:00;;;;;;;6.72;3.17;;;;;;;;;;1914813;75;21006;-49
2024/04/13 10:02:30;;;;;;;7.00;3.90;;;;;;;;;;1914821;74;21156;-48
2024/04/13 10:05:01;;;;;;;5.85;2.98;;;;;;;;;;1914902;75;21476;-50
2024/04/13 10:07:29;;;;;;;15.43;4.20;;;;;;;;;;1914822;74;21475;-50
2024/04/13 10:09:59;;;;;;;6.28;3.35;;;;;;;;;;1914830;75;21063;-49
2024/04/13 10:12:28;;;;;;;7.15;3.83;;;;;;;;;;1914844;75;21002;-49
2024/04/13 10:14:58;;;;;;;5.60;3.62;;;;;;;;;;1914747;75;21468;-48
2024/04/13 10:17:27;;;;;;;4.25;3.00;;;;;;;;;;1914829;75;20994;-48
2024/04/13 10:19:56;;;;;;;7.62;4.17;;;;;;;;;;1914730;74;21042;-49
2024/04/13 10:22:25;;;;;;;7.95;3.92;;;;;;;;;;1914908;75;21091;-48
2024/04/13 10:24:53;;;;;;;6.62;4.05;;;;;;;;;;1914762;74;21073;-50
2024/04/13 10:27:23;;;;;;;8.18;4.08;;;;;;;;;;1914857;74;21030;-48
2024/04/13 10:29:58;;;;;;;10.28;4.45;;;;;;;;;;1914831;74;21045;-48
2024/04/13 10:32:26;;;;;;;9.18;4.10;;;;;;;;;;1914840;75;20986;-48
2024/04/13 10:34:58;;;;;;;5.25;3.83;;;;;;;;;;1914678;74;21088;-50
2024/04/13 10:37:26;;;;;;;6.28;3.83;;;;;;;;;;1914671;74;21533;-51
2024/04/13 10:39:55;;;;;;;4.47;3.45;;;;;;;;;;1920728;74;21081;-51
2024/04/13 10:42:37;;;;;;;5.80;3.60;;;;;;;;;;1924785;74;21075;-48
2024/04/13 10:45:16;;;;;;;9.38;4.70;;;;;;;;;;1897865;74;21060;-49
2024/04/13 10:47:46;;;;;;;8.75;3.98;;;;;;;;;;1924634;74;21001;-48
2024/04/13 10:50:15;;;;;;;7.40;3.72;;;;;;;;;;1924576;74;21045;-48
2024/04/13 10:52:44;;;;;;;9.90;4.33;;;;;;;;;;1924817;74;21056;-48
2024/04/13 10:55:13;;;;;;;9.25;4.75;;;;;;;;;;1924743;73;21083;-48
2024/04/13 10:57:41;;;;;;;10.23;3.45;;;;;;;;;;1924799;74;21014;-49
2024/04/13 11:00:10;;;;;;;5.78;3.62;;;;;;;;;;1924686;74;20989;-49
2024/04/13 11:02:39;;;;;;;12.00;4.28;;;;;;;;;;1924738;74;20978;-49
2024/04/13 11:05:08;;;;;;;5.25;4.05;;;;;;;;;;1924648;74;21083;-48
2024/04/13 11:07:37;;;;;;;7.40;3.70;;;;;;;;;;1924687;74;20998;-48
2024/04/13 11:10:05;;;;;;;4.03;3.25;;;;;;;;;;1924682;74;21022;-48
2024/04/13 11:12:35;;;;;;;10.68;3.87;;;;;;;;;;1924837;74;21127;-49
2024/04/13 11:15:04;;;;;;;6.60;3.72;;;;;;;;;;1924616;74;21037;-48
2024/04/13 11:17:33;;;;;;;7.28;3.35;;;;;;;;;;1924684;74;21107;-49
2024/04/13 11:20:02;;;;;;;5.67;3.27;;;;;;;;;;1924747;74;21049;-48
2024/04/13 11:22:31;;;;;;;6.53;3.52;;;;;;;;;;1924708;74;21089;-48
2024/04/13 11:24:59;;;;;;;5.72;3.17;;;;;;;;;;1924770;74;20999;-48
2024/04/13 11:27:28;;;;;;;5.70;2.85;;;;;;;;;;1924792;74;21064;-48
2024/04/13 11:29:56;;;;;;;7.30;3.85;;;;;;;;;;1924667;74;21025;-48
2024/04/13 11:32:25;;;;;;;7.83;3.33;;;;;;;;;;1924791;74;21049;-50
2024/04/13 11:34:54;;;;;;;5.08;3.05;;;;;;;;;;1924647;74;21045;-48
2024/04/13 11:37:23;;;;;;;4.00;3.30;;;;;;;;;;1924654;73;21010;-48
2024/04/13 11:39:52;;;;;;;8.93;5.50;;;;;;;;;;1921073;74;21042;-48
2024/04/13 11:42:21;;;;;;;7.58;3.62;;;;;;;;;;1914836;74;21060;-51
2024/04/13 11:44:51;;;;;;;8.98;2.92;;;;;;;;;;1914701;75;20974;-48
2024/04/13 11:47:19;;;;;;;5.75;3.40;;;;;;;;;;1914801;75;21057;-47
2024/04/13 11:49:48;;;;;;;14.55;4.60;;;;;;;;;;1914929;75;21060;-47
2024/04/13 11:52:17;;;;;;;10.93;3.77;;;;;;;;;;1914886;75;21022;-48
2024/04/13 11:54:47;;;;;;;5.08;3.67;;;;;;;;;;1914841;75;21050;-48
2024/04/13 11:57:16;;;;;;;6.05;4.33;;;;;;;;;;1914834;75;21018;-48
2024/04/13 11:59:45;;;;;;;6.05;3.25;;;;;;;;;;1914874;74;21053;-48
2024/04/13 12:02:14;;;;;;;6.30;3.08;;;;;;;;;;1914882;75;21049;-49
2024/04/13 12:04:42;;;;;;;7.78;2.98;;;;;;;;;;1914970;75;20974;-48
2024/04/13 12:07:12;;;;;;;5.75;3.08;;;;;;;;;;1914854;75;21063;-49
2024/04/13 12:09:40;;;;;;;6.95;3.55;;;;;;;;;;1914950;75;21017;-48
2024/04/13 12:12:12;;;;;;;6.22;3.58;;;;;;;;;;1914905;75;21080;-49
2024/04/13 12:14:39;;;;;;;7.50;4.30;;;;;;;;;;1914824;74;21456;-51
2024/04/13 12:17:08;;;;;;;9.85;3.83;;;;;;;;;;1914860;74;21088;-48
2024/04/13 12:19:37;;;;;;;9.25;3.60;;;;;;;;;;1914961;75;21013;-48
2024/04/13 12:22:05;;;;;;;8.25;3.58;;;;;;;;;;1914837;75;21084;-48
2024/04/13 12:24:35;;;;;;;3.98;3.17;;;;;;;;;;1914929;74;21127;-47
2024/04/13 12:27:04;;;;;;;8.53;3.72;;;;;;;;;;1914793;75;21166;-50
2024/04/13 12:29:33;;;;;;;7.05;4.20;;;;;;;;;;1914811;75;20982;-48
2024/04/13 12:32:03;;;;;;;9.60;3.50;;;;;;;;;;1914834;75;21030;-48
2024/04/13 12:34:32;;;;;;;6.62;3.85;;;;;;;;;;1914914;75;21018;-50
2024/04/13 12:37:00;;;;;;;6.25;4.85;;;;;;;;;;1914984;75;21006;-49
2024/04/13 12:39:29;;;;;;;7.90;4.17;;;;;;;;;;1914846;74;21084;-48
2024/04/13 12:41:58;;;;;;;8.25;3.72;;;;;;;;;;1914869;75;21030;-48
2024/04/13 12:44:28;;;;;;;8.43;3.62;;;;;;;;;;1914799;75;21026;-48
2024/04/13 12:46:57;;;;;;;7.97;3.67;;;;;;;;;;1914848;75;21447;-47
2024/04/13 12:49:25;;;;;;;3.95;3.25;;;;;;;;;;1914810;75;21084;-48
2024/04/13 12:51:54;;;;;;;9.40;3.55;;;;;;;;;;1914847;74;21065;-47
2024/04/13 12:54:23;;;;;;;8.63;3.90;;;;;;;;;;1914869;75;21081;-48
2024/04/13 12:56:52;;;;;;;4.50;3.27;;;;;;;;;;1914958;75;21010;-47
2024/04/13 12:59:20;;;;;;;3.95;3.05;;;;;;;;;;1914793;74;21135;-50
2024/04/13 13:01:49;;;;;;;3.87;3.45;;;;;;;;;;1915060;75;21064;-50
2024/04/13 13:04:17;;;;;;;7.80;3.42;;;;;;;;;;1914923;75;21068;-50
2024/04/13 13:06:46;;;;;;;7.35;3.55;;;;;;;;;;1914930;75;21055;-49
2024/04/13 13:09:15;;;;;;;7.47;3.75;;;;;;;;;;1914971;74;21068;-49
2024/04/13 13:11:43;;;;;;;7.12;3.37;;;;;;;;;;1914899;75;21010;-47
2024/04/13 13:14:12;;;;;;;9.03;3.58;;;;;;;;;;1914892;75;21018;-47
2024/04/13 13:16:40;;;;;;;10.40;5.80;;;;;;;;;;1914960;74;21065;-47
2024/04/13 13:19:08;;;;;;;13.30;8.00;;;;;;;;;;1914751;75;21022;-48
2024/04/13 13:21:37;;;;;;;10.30;7.12;;;;;;;;;;1914828;75;21045;-47
2024/04/13 13:24:06;;;;;;;17.15;5.47;;;;;;;;;;1914893;75;21045;-48
2024/04/13 13:26:34;;;;;;;7.58;3.33;;;;;;;;;;1914933;74;21139;-47
2024/04/13 13:29:03;;;;;;;4.47;2.85;;;;;;;;;;1914976;74;21026;-48
2024/04/13 13:31:32;;;;;;;14.10;3.80;;;;;;;;;;1914992;75;21086;-50
2024/04/13 13:34:03;;;;;;;5.90;3.45;;;;;;;;;;1914812;75;21088;-48
2024/04/13 15:39:33;;;;;;;2.87;2.25;;;17.50;86.10;;;;;;1959082;72;25807;-53
2024/04/13 15:42:02;;;;;;;5.60;3.40;;;17.40;86.40;;;;;;1918353;75;21128;-54
2024/04/13 15:44:31;;;;;;;4.12;2.25;;;17.30;86.50;;;;;;1918331;75;21442;-55
2024/04/13 15:47:00;;;;;;;3.95;2.40;;;17.20;86.80;;;;;;1918303;75;20983;-54
2024/04/13 15:49:30;;;;;;;6.92;2.87;;;17.20;86.90;;;;;;1918293;75;20991;-53
2024/04/13 15:51:59;;;;;;;5.05;3.08;;;17.10;87.10;;;;;;1918402;75;21010;-54
2024/04/13 15:54:28;;;;;;;3.65;2.30;;;17.00;87.40;;;;;;1918275;74;21027;-54
2024/04/13 15:56:57;;;;;;;3.85;2.45;;;16.90;87.50;;;;;;1918308;73;21108;-54
2024/04/13 15:59:26;;;;;;;5.12;2.40;;;16.80;87.80;;;;;;1918389;75;21116;-54
2024/04/13 16:01:55;;;;;;;4.42;2.22;;;16.70;88.00;;;;;;1918338;74;21015;-54
2024/04/13 16:04:24;;;;;;;4.47;2.85;;;16.60;88.20;;;;;;1918303;75;21152;-54
2024/04/13 16:06:56;;;;;;;8.08;3.37;;;16.60;88.40;;;;;;1918424;75;21156;-55
2024/04/13 16:09:25;;;;;;;7.28;3.17;;;16.50;88.60;;;;;;1918376;75;21121;-55
2024/04/13 16:11:55;;;;;;;3.98;2.52;;;16.40;89.00;;;;;;1918310;75;21042;-55
2024/04/13 16:14:24;;;;;;;4.70;2.83;;;16.30;89.00;;;;;;1918312;75;21156;-55
2024/04/13 16:16:53;;;;;;;2.90;2.60;;;16.30;89.20;;;;;;1918336;75;21011;-55
2024/04/13 16:19:23;;;;;;;4.75;2.42;;;16.20;89.40;;;;;;1918381;75;21023;-55
2024/04/13 16:21:51;;;;;;;5.03;2.67;;;16.10;89.60;;;;;;1918378;75;21023;-54
2024/04/13 16:24:21;;;;;;;7.62;3.20;;;16.10;89.70;;;;;;1918302;75;21522;-54
2024/04/13 16:26:50;;;;;;;4.72;2.83;;;16.10;89.90;;;;;;1918469;75;21092;-53
2024/04/13 16:29:19;;;;;;;3.62;2.50;;;16.00;89.90;;;;;;1918407;75;21006;-53
2024/04/13 16:31:48;;;;;;;6.62;2.92;;;16.00;89.80;;;;;;1918504;75;20999;-52
2024/04/13 16:34:18;;;;;;;5.62;2.70;;;16.00;89.90;;;;;;1918367;75;21032;-52
2024/04/13 16:36:46;;;;;;;6.60;2.95;;;16.00;89.80;;;;;;1893564;75;21088;-49
2024/04/13 16:39:16;;;;;;;5.12;2.45;;;16.00;89.80;;;;;;1892308;75;21128;-49
2024/04/13 16:41:45;;;;;;;4.75;2.72;;;16.00;89.90;;;;;;1883628;75;21102;-52
2024/04/13 16:44:15;;;;;;;8.15;2.65;;;16.00;89.90;;;;;;1884338;75;21055;-49